Terminal Aerodrome Forecast
Issued by NWS Springfield, MO

Home | Current Version | Previous Version | Text Only | Print | Product List | Glossary On
Versions: 1 2 3 4 5 6 7 8 9 10 11 12 13 14 15 16 17 18 19 20 21 22 23
000
FTUS43 KSGF 270520
TAFSGF
TAF
KSGF 270520Z 2706/2806 10008KT P6SM VCSH BKN070 OVC100
     FM270900 10008KT P6SM SCT150
     FM271900 14008KT P6SM FEW200=

USA.gov is the U.S. government's official web portal to all federal, state and local government web resources and services.